createdAt,value
2019-04-28T00:02:20.550Z,47.82
2019-04-28T00:04:51.532Z,47.40
2019-04-28T00:07:22.690Z,48.04
2019-04-28T00:09:53.634Z,48.41
2019-04-28T00:12:24.589Z,48.85
2019-04-28T00:14:55.567Z,48.80
2019-04-28T00:17:26.421Z,48.80
2019-04-28T00:19:59.015Z,48.99
2019-04-28T00:22:31.512Z,48.54
2019-04-28T00:25:13.208Z,48.05
2019-04-28T00:27:44.043Z,49.32
2019-04-28T00:30:15.122Z,49.88
2019-04-28T00:32:45.960Z,49.01
2019-04-28T00:35:16.920Z,49.75
2019-04-28T00:37:47.485Z,48.55
2019-04-28T00:40:18.634Z,48.05
2019-04-28T00:42:51.075Z,49.48
2019-04-28T00:45:21.595Z,50.00
2019-04-28T00:47:52.650Z,50.87
2019-04-28T00:50:23.484Z,48.62
2019-04-28T00:52:55.104Z,48.51
2019-04-28T00:55:25.728Z,49.07
2019-04-28T00:57:56.891Z,47.57
2019-04-28T01:00:31.034Z,47.12
2019-04-28T01:03:02.283Z,46.48
2019-04-28T01:05:33.447Z,47.10
2019-04-28T01:08:04.491Z,48.43
2019-04-28T01:10:35.161Z,48.23
2019-04-28T01:13:06.322Z,49.29
2019-04-28T01:15:41.867Z,49.93
2019-04-28T01:18:26.531Z,49.67
2019-04-28T01:20:57.388Z,48.97
2019-04-28T01:23:30.235Z,49.27
2019-04-28T01:26:01.041Z,49.31
2019-04-28T01:28:32.121Z,49.91
2019-04-28T01:31:13.512Z,49.65
2019-04-28T01:34:04.599Z,49.16
2019-04-28T01:36:37.194Z,48.13
2019-04-28T01:39:10.042Z,49.12
2019-04-28T01:41:41.669Z,50.73
2019-04-28T01:44:12.743Z,51.51
2019-04-28T01:46:43.805Z,53.63
2019-04-28T01:49:14.967Z,55.50
2019-04-28T01:51:50.257Z,55.96
2019-04-28T01:54:21.060Z,60.52
2019-04-28T01:56:52.122Z,58.53
2019-04-28T01:59:23.187Z,57.27
2019-04-28T02:01:54.259Z,61.30
2019-04-28T02:04:25.218Z,56.97
2019-04-28T02:06:56.074Z,55.74
2019-04-28T02:09:27.135Z,56.03
2019-04-28T02:11:58.213Z,55.25
2019-04-28T02:14:30.816Z,54.66
2019-04-28T02:17:01.645Z,54.90
2019-04-28T02:19:33.003Z,56.06
2019-04-28T02:22:05.591Z,55.42
2019-04-28T02:24:37.588Z,56.44
2019-04-28T02:27:10.412Z,56.46
2019-04-28T02:29:41.727Z,55.46
2019-04-28T02:32:13.311Z,56.68
2019-04-28T02:34:44.696Z,57.23
2019-04-28T02:37:15.344Z,56.09
2019-04-28T02:39:46.308Z,56.06
2019-04-28T02:42:20.632Z,56.04
2019-04-28T02:44:51.497Z,56.09
2019-04-28T02:47:22.569Z,57.20
2019-04-28T02:49:55.236Z,56.76
2019-04-28T02:52:30.983Z,57.36
2019-04-28T02:55:03.239Z,56.44
2019-04-28T02:57:34.367Z,56.97
2019-04-28T03:00:10.093Z,57.65
2019-04-28T03:02:41.456Z,57.48
2019-04-28T03:05:12.871Z,57.86
2019-04-28T03:07:43.521Z,58.55
2019-04-28T03:10:14.580Z,58.29
2019-04-28T03:12:45.640Z,59.38
2019-04-28T03:15:16.789Z,59.77
2019-04-28T03:17:52.442Z,60.66
2019-04-28T03:20:20.970Z,61.26
2019-04-28T03:22:52.731Z,61.61
2019-04-28T03:25:30.218Z,61.54
2019-04-28T03:28:02.135Z,60.26
2019-04-28T03:30:34.622Z,60.23
2019-04-28T03:33:16.995Z,57.02
2019-04-28T03:35:43.989Z,55.20
2019-04-28T03:38:12.201Z,54.06
2019-04-28T03:40:43.253Z,54.30
2019-04-28T03:43:15.153Z,52.56
2019-04-28T03:45:50.436Z,54.58
2019-04-28T03:48:21.350Z,51.44
2019-04-28T03:50:52.515Z,53.48
2019-04-28T03:53:23.461Z,53.20
2019-04-28T03:55:54.639Z,52.48
2019-04-28T03:58:25.183Z,52.31
2019-04-28T04:00:56.129Z,51.61
2019-04-28T04:03:27.085Z,52.71
2019-04-28T04:06:00.499Z,56.44
2019-04-28T04:08:31.144Z,54.20
2019-04-28T04:11:03.641Z,53.29
2019-04-28T04:13:52.835Z,47.14
2019-04-28T04:16:25.396Z,46.32
2019-04-28T04:19:00.505Z,44.20
2019-04-28T04:21:31.063Z,44.61
2019-04-28T04:24:02.060Z,45.63
2019-04-28T04:26:33.773Z,43.87
2019-04-28T04:29:04.693Z,45.48
2019-04-28T04:31:35.670Z,46.13
2019-04-28T04:34:06.627Z,44.63
2019-04-28T04:36:37.583Z,43.42
2019-04-28T04:39:10.810Z,42.66
2019-04-28T04:41:43.465Z,43.91
2019-04-28T04:44:13.200Z,41.62
2019-04-28T04:46:44.178Z,40.90
2019-04-28T04:49:15.020Z,40.76
2019-04-28T04:51:46.076Z,40.24
2019-04-28T04:54:17.054Z,40.27
2019-04-28T04:56:49.975Z,39.94
2019-04-28T04:59:20.377Z,39.14
2019-04-28T05:01:55.963Z,39.24
2019-04-28T05:04:31.522Z,38.93
2019-04-28T05:07:02.480Z,38.58
2019-04-28T05:09:33.336Z,38.43
2019-04-28T05:12:04.388Z,37.12
2019-04-28T05:14:35.357Z,38.64
2019-04-28T05:17:06.313Z,38.69
2019-04-28T05:19:37.273Z,38.42
2019-04-28T05:22:10.165Z,38.38
2019-04-28T05:24:46.292Z,38.83
2019-04-28T05:27:17.359Z,37.94
2019-04-28T05:29:46.917Z,39.58
2019-04-28T05:32:17.980Z,39.71
2019-04-28T05:34:50.661Z,41.07
2019-04-28T05:37:21.348Z,38.93
2019-04-28T05:39:52.699Z,40.23
2019-04-28T05:42:23.570Z,39.40
2019-04-28T05:44:54.816Z,39.40
2019-04-28T05:47:25.897Z,39.44
2019-04-28T05:50:04.525Z,40.51
2019-04-28T05:52:53.177Z,39.17
2019-04-28T05:55:39.357Z,40.33
2019-04-28T05:58:14.626Z,40.31
2019-04-28T06:01:03.487Z,39.37
2019-04-28T06:03:35.142Z,38.05
2019-04-28T06:06:06.012Z,38.79
2019-04-28T06:08:53.543Z,39.65
2019-04-28T06:11:31.862Z,38.53
2019-04-28T06:14:02.721Z,38.70
2019-04-28T06:16:33.881Z,40.22
2019-04-28T06:19:04.719Z,40.39
2019-04-28T06:21:35.491Z,40.77
2019-04-28T06:24:06.431Z,40.73
2019-04-28T06:26:37.289Z,40.26
2019-04-28T06:29:08.365Z,41.14
2019-04-28T06:31:39.324Z,42.00
2019-04-28T06:34:10.387Z,42.25
2019-04-28T06:36:41.346Z,42.84
2019-04-28T06:39:12.199Z,42.94
2019-04-28T06:41:43.258Z,42.70
2019-04-28T06:44:14.220Z,43.53
2019-04-28T06:46:45.484Z,44.99
2019-04-28T06:49:16.449Z,44.24
2019-04-28T06:51:47.503Z,43.21
2019-04-28T06:54:18.651Z,42.82
2019-04-28T06:56:49.724Z,44.44
2019-04-28T06:59:20.786Z,43.40
2019-04-28T07:01:51.847Z,45.39
2019-04-28T07:04:23.010Z,47.14
2019-04-28T07:06:53.954Z,47.03
2019-04-28T07:09:25.029Z,49.44
2019-04-28T07:11:55.986Z,50.15
2019-04-28T07:14:27.150Z,50.55
2019-04-28T07:16:58.093Z,50.77
2019-04-28T07:19:29.273Z,51.87
2019-04-28T07:22:11.379Z,52.90
2019-04-28T07:24:44.766Z,54.72
2019-04-28T07:27:14.612Z,56.56
2019-04-28T07:29:45.684Z,56.52
2019-04-28T07:32:16.556Z,57.47
2019-04-28T07:34:47.602Z,55.02
2019-04-28T07:37:18.867Z,58.93
2019-04-28T07:39:49.929Z,56.72
2019-04-28T07:42:20.767Z,54.62
2019-04-28T07:44:51.623Z,53.37
2019-04-28T07:47:23.723Z,51.16
2019-04-28T07:49:54.782Z,53.91
2019-04-28T07:52:27.277Z,51.66
2019-04-28T07:54:58.421Z,52.02
2019-04-28T07:57:29.498Z,51.13
2019-04-28T08:00:00.570Z,49.24
2019-04-28T08:02:31.505Z,48.47
2019-04-28T08:05:02.497Z,48.18
2019-04-28T08:07:33.539Z,49.81
2019-04-28T08:10:06.239Z,48.26
2019-04-28T08:12:36.969Z,47.51
2019-04-28T08:15:07.947Z,44.61
2019-04-28T08:17:39.007Z,46.77
2019-04-28T08:20:10.477Z,42.94
2019-04-28T08:22:41.417Z,43.05
2019-04-28T08:25:12.471Z,43.59
2019-04-28T08:27:43.435Z,43.16
2019-04-28T08:30:14.413Z,42.89
2019-04-28T08:32:55.786Z,37.80
2019-04-28T08:35:26.861Z,40.13
2019-04-28T08:37:57.699Z,34.53
2019-04-28T08:40:28.674Z,34.77
2019-04-28T08:42:59.619Z,32.89
2019-04-28T08:45:30.591Z,34.38
2019-04-28T08:48:02.061Z,31.12
2019-04-28T08:50:32.903Z,33.54
2019-04-28T08:53:03.861Z,31.34
2019-04-28T08:55:35.225Z,30.01
2019-04-28T08:58:05.894Z,30.89
2019-04-28T09:00:36.956Z,31.52
2019-04-28T09:03:07.915Z,30.16
2019-04-28T09:05:38.757Z,31.64
2019-04-28T09:08:09.830Z,31.18
2019-04-28T09:10:40.789Z,29.91
2019-04-28T09:13:11.790Z,28.06
2019-04-28T09:15:42.812Z,30.01
2019-04-28T09:18:13.543Z,28.05
2019-04-28T09:20:44.723Z,28.34
2019-04-28T09:23:15.567Z,28.45
2019-04-28T09:25:46.439Z,28.45
2019-04-28T09:28:17.499Z,28.42
2019-04-28T09:30:48.560Z,28.40
2019-04-28T09:33:19.622Z,27.52
2019-04-28T09:35:50.575Z,28.93
2019-04-28T09:38:21.742Z,29.82
2019-04-28T09:40:52.699Z,29.21
2019-04-28T09:43:25.070Z,29.42
2019-04-28T09:46:00.632Z,27.56
2019-04-28T09:48:32.528Z,26.53
2019-04-28T09:51:03.570Z,27.79
2019-04-28T09:53:34.650Z,26.60
2019-04-28T09:56:05.693Z,26.89
2019-04-28T09:58:36.651Z,25.55
2019-04-28T10:01:07.626Z,26.85
2019-04-28T10:03:38.686Z,25.36
2019-04-28T10:06:09.730Z,26.97
2019-04-28T10:08:40.707Z,26.35
2019-04-28T10:11:11.752Z,25.99
2019-04-28T10:13:42.604Z,27.50
2019-04-28T10:16:13.478Z,26.84
2019-04-28T10:18:44.132Z,26.55
2019-04-28T10:21:15.087Z,28.76
2019-04-28T10:23:45.945Z,28.66
2019-04-28T10:26:17.007Z,27.47
2019-04-28T10:28:47.845Z,26.71
2019-04-28T10:31:18.905Z,27.19
2019-04-28T10:33:51.396Z,27.79
2019-04-28T10:36:22.256Z,26.72
2019-04-28T10:38:54.867Z,27.87
2019-04-28T10:41:27.461Z,26.38
2019-04-28T10:43:58.521Z,26.80
2019-04-28T10:46:29.462Z,26.40
2019-04-28T10:49:00.221Z,26.87
2019-04-28T10:51:31.404Z,26.39
2019-04-28T10:54:01.929Z,26.71
2019-04-28T10:56:32.801Z,27.31
2019-04-28T10:59:04.272Z,26.71
2019-04-28T11:01:35.126Z,26.61
2019-04-28T11:04:10.381Z,25.84
2019-04-28T11:06:41.338Z,25.73
2019-04-28T11:09:32.038Z,25.81
2019-04-28T11:12:03.303Z,26.35
2019-04-28T11:14:34.261Z,26.25
2019-04-28T11:17:05.627Z,26.56
2019-04-28T11:19:36.178Z,25.02
2019-04-28T11:22:07.134Z,24.32
2019-04-28T11:24:38.196Z,23.92
2019-04-28T11:27:09.751Z,24.64
2019-04-28T11:29:40.523Z,23.16
2019-04-28T11:32:11.582Z,23.95
2019-04-28T11:34:49.700Z,23.37
2019-04-28T11:37:21.074Z,23.77
2019-04-28T11:39:51.620Z,25.78
2019-04-28T11:42:22.561Z,25.84
2019-04-28T11:44:53.636Z,25.14
2019-04-28T11:47:24.678Z,24.29
2019-04-28T11:49:55.658Z,23.99
2019-04-28T11:52:26.615Z,24.77
2019-04-28T11:54:57.454Z,24.51
2019-04-28T11:57:28.739Z,24.89
2019-04-28T11:59:59.374Z,24.82
2019-04-28T12:02:30.250Z,25.03
2019-04-28T12:05:01.389Z,25.25
2019-04-28T12:07:32.464Z,25.09
2019-04-28T12:10:07.907Z,25.90
2019-04-28T12:12:40.418Z,25.25
2019-04-28T12:15:16.284Z,24.14
2019-04-28T12:17:54.923Z,24.71
2019-04-28T12:20:27.001Z,25.11
2019-04-28T12:22:57.732Z,25.29
2019-04-28T12:25:28.813Z,24.38
2019-04-28T12:27:59.772Z,24.26
2019-04-28T12:30:30.830Z,24.36
2019-04-28T12:33:01.874Z,23.60
2019-04-28T12:35:33.053Z,22.16
2019-04-28T12:38:03.995Z,23.61
2019-04-28T12:40:34.968Z,22.54
2019-04-28T12:43:06.031Z,23.01
2019-04-28T12:45:36.995Z,24.51
2019-04-28T12:48:08.032Z,24.14
2019-04-28T12:50:46.577Z,24.36
2019-04-28T12:53:17.434Z,24.93
2019-04-28T12:55:48.374Z,24.40
2019-04-28T12:58:19.351Z,23.62
2019-04-28T13:01:08.203Z,24.76
2019-04-28T13:03:40.803Z,24.58
2019-04-28T13:06:18.899Z,24.97
2019-04-28T13:08:49.961Z,24.53
2019-04-28T13:11:20.919Z,30.45
2019-04-28T13:13:51.895Z,32.26
2019-04-28T13:16:22.734Z,33.07
2019-04-28T13:18:53.813Z,33.77
2019-04-28T13:21:24.755Z,35.41
2019-04-28T13:23:55.861Z,34.88
2019-04-28T13:26:26.898Z,34.44
2019-04-28T13:28:57.950Z,34.31
2019-04-28T13:31:28.910Z,34.72
2019-04-28T13:34:01.300Z,34.79
2019-04-28T13:36:32.070Z,36.78
2019-04-28T13:39:04.652Z,36.18
2019-04-28T13:41:37.365Z,36.19
2019-04-28T13:44:09.416Z,35.52
2019-04-28T13:46:40.388Z,36.99
2019-04-28T13:49:12.887Z,37.13
2019-04-28T13:51:43.823Z,37.13
2019-04-28T13:54:16.314Z,37.07
2019-04-28T13:56:47.391Z,37.34
2019-04-28T13:59:19.885Z,38.84
2019-04-28T14:01:52.379Z,40.08
2019-04-28T14:04:31.161Z,40.20
2019-04-28T14:07:02.072Z,38.67
2019-04-28T14:09:33.070Z,38.38
2019-04-28T14:12:04.194Z,37.56
2019-04-28T14:14:35.233Z,39.11
2019-04-28T14:17:06.208Z,39.54
2019-04-28T14:19:37.369Z,39.45
2019-04-28T14:22:08.381Z,40.32
2019-04-28T14:24:39.285Z,39.29
2019-04-28T14:27:10.350Z,38.63
2019-04-28T14:29:41.186Z,40.01
2019-04-28T14:32:12.289Z,38.92
2019-04-28T14:34:43.223Z,38.32
2019-04-28T14:37:14.293Z,39.49
2019-04-28T14:39:45.225Z,39.88
2019-04-28T14:42:16.100Z,40.45
2019-04-28T14:44:47.039Z,42.05
2019-04-28T14:47:18.016Z,40.86
2019-04-28T14:49:49.224Z,41.15
2019-04-28T14:52:20.252Z,40.36
2019-04-28T14:54:51.303Z,39.50
2019-04-28T14:57:22.137Z,40.96
2019-04-28T14:59:53.114Z,40.73
2019-04-28T15:02:42.315Z,40.90
2019-04-28T15:05:21.401Z,39.60
2019-04-28T15:08:12.423Z,39.04
2019-04-28T15:11:03.092Z,40.90
2019-04-28T15:13:34.180Z,43.96
2019-04-28T15:16:05.183Z,42.52
2019-04-28T15:18:36.136Z,44.01
2019-04-28T15:21:07.172Z,43.47
2019-04-28T15:23:38.116Z,44.36
2019-04-28T15:26:09.183Z,44.47
2019-04-28T15:28:40.136Z,43.02
2019-04-28T15:31:10.973Z,38.52
2019-04-28T15:33:42.051Z,38.01
2019-04-28T15:36:13.014Z,39.15
2019-04-28T15:38:44.071Z,36.89
2019-04-28T15:41:21.961Z,39.56
2019-04-28T15:43:47.305Z,39.39
2019-04-28T15:46:18.257Z,39.31
2019-04-28T15:48:49.115Z,39.60
2019-04-28T15:51:21.112Z,39.35
2019-04-28T15:53:51.765Z,37.42
2019-04-28T15:56:27.104Z,37.87
2019-04-28T15:58:58.067Z,38.33
2019-04-28T16:01:28.943Z,39.64
2019-04-28T16:03:59.998Z,38.90
2019-04-28T16:06:31.039Z,41.26
2019-04-28T16:09:02.116Z,44.11
2019-04-28T16:11:41.148Z,43.64
2019-04-28T16:14:11.810Z,46.39
2019-04-28T16:16:43.787Z,46.49
2019-04-28T16:19:14.744Z,46.85
2019-04-28T16:21:45.706Z,49.45
2019-04-28T16:24:17.278Z,50.86
2019-04-28T16:26:48.349Z,53.43
2019-04-28T16:29:19.398Z,53.30
2019-04-28T16:31:49.928Z,51.67
2019-04-28T16:34:20.782Z,53.08
2019-04-28T16:36:51.741Z,54.14
2019-04-28T16:39:22.598Z,55.16
2019-04-28T16:41:54.332Z,56.22
2019-04-28T16:44:25.351Z,54.97
2019-04-28T16:46:56.293Z,54.53
2019-04-28T16:49:27.270Z,55.45
2019-04-28T16:51:58.210Z,57.55
2019-04-28T16:54:29.185Z,57.78
2019-04-28T16:57:07.609Z,57.67
2019-04-28T16:59:52.158Z,56.84
2019-04-28T17:02:33.635Z,59.02
2019-04-28T17:05:05.748Z,58.56
2019-04-28T17:07:36.813Z,59.10
2019-04-28T17:10:07.953Z,59.03
2019-04-28T17:12:38.658Z,59.07
2019-04-28T17:15:09.984Z,58.98
2019-04-28T17:17:40.537Z,58.72
2019-04-28T17:20:11.746Z,57.93
2019-04-28T17:22:42.340Z,57.59
2019-04-28T17:25:13.601Z,57.43
2019-04-28T17:27:44.781Z,56.45
2019-04-28T17:30:17.154Z,55.88
2019-04-28T17:32:48.027Z,55.17
2019-04-28T17:35:18.968Z,56.24
2019-04-28T17:37:50.051Z,58.19
2019-04-28T17:40:22.521Z,58.71
2019-04-28T17:42:53.600Z,58.58
2019-04-28T17:45:24.561Z,59.10
2019-04-28T17:47:57.153Z,59.48
2019-04-28T17:50:28.521Z,58.47
2019-04-28T17:52:59.253Z,59.02
2019-04-28T17:55:30.113Z,59.01
2019-04-28T17:58:00.978Z,58.52
2019-04-28T18:00:40.028Z,58.00
2019-04-28T18:03:28.863Z,56.89
2019-04-28T18:06:01.270Z,57.34
2019-04-28T18:08:33.353Z,56.56
2019-04-28T18:11:04.006Z,56.48
2019-04-28T18:13:34.964Z,56.62
2019-04-28T18:16:23.598Z,55.80
2019-04-28T18:19:14.315Z,54.73
2019-04-28T18:21:45.448Z,53.47
2019-04-28T18:24:16.539Z,54.48
2019-04-28T18:26:47.598Z,54.59
2019-04-28T18:29:18.440Z,53.80
2019-04-28T18:32:00.151Z,54.14
2019-04-28T18:34:32.746Z,52.60
2019-04-28T18:37:17.411Z,52.95
2019-04-28T18:40:04.731Z,53.31
2019-04-28T18:42:55.739Z,53.56
2019-04-28T18:45:26.692Z,52.64
2019-04-28T18:47:57.961Z,52.87
2019-04-28T18:50:28.800Z,53.87
2019-04-28T18:52:59.655Z,53.97
2019-04-28T18:55:30.610Z,54.41
2019-04-28T18:58:01.588Z,55.26
2019-04-28T19:00:34.181Z,54.84
2019-04-28T19:03:05.226Z,55.47
2019-04-28T19:05:37.666Z,56.26
2019-04-28T19:08:12.889Z,56.93
2019-04-28T19:10:45.471Z,57.02
2019-04-28T19:13:20.841Z,57.52
2019-04-28T19:15:53.432Z,57.84
2019-04-28T19:18:27.156Z,58.24
2019-04-28T19:20:57.989Z,59.01
2019-04-28T19:23:29.068Z,60.05
2019-04-28T19:26:00.489Z,59.81
2019-04-28T19:28:31.172Z,60.46
2019-04-28T19:31:02.252Z,61.64
2019-04-28T19:33:33.212Z,61.15
2019-04-28T19:36:04.151Z,60.85
2019-04-28T19:38:35.231Z,62.77
2019-04-28T19:41:06.188Z,63.50
2019-04-28T19:43:37.149Z,63.43
2019-04-28T19:46:09.641Z,64.06
2019-04-28T19:48:40.699Z,65.08
2019-04-28T19:51:11.657Z,64.19
2019-04-28T19:53:42.721Z,64.08
2019-04-28T19:56:27.365Z,64.56
2019-04-28T19:59:15.092Z,65.07
2019-04-28T20:01:46.377Z,63.28
2019-04-28T20:04:17.186Z,60.06
2019-04-28T20:06:48.183Z,58.54
2019-04-28T20:09:19.031Z,56.05
2019-04-28T20:11:50.005Z,60.50
2019-04-28T20:14:20.945Z,62.03
2019-04-28T20:16:51.922Z,53.99
2019-04-28T20:19:22.777Z,53.43
2019-04-28T20:21:53.841Z,55.62
2019-04-28T20:24:24.796Z,58.04
2019-04-28T20:26:55.740Z,58.28
2019-04-28T20:29:26.712Z,57.95
2019-04-28T20:31:57.571Z,55.81
2019-04-28T20:34:28.512Z,58.93
2019-04-28T20:37:13.174Z,58.52
2019-04-28T20:39:45.584Z,58.09
2019-04-28T20:42:34.749Z,57.20
2019-04-28T20:45:08.637Z,53.89
2019-04-28T20:47:39.733Z,56.23
2019-04-28T20:50:10.977Z,58.15
2019-04-28T20:52:41.631Z,58.57
2019-04-28T20:55:12.708Z,58.17
2019-04-28T20:57:43.649Z,55.47
2019-04-28T21:00:14.813Z,52.57
2019-04-28T21:02:45.889Z,52.15
2019-04-28T21:05:16.947Z,51.12
2019-04-28T21:07:47.807Z,49.65
2019-04-28T21:10:18.869Z,48.76
2019-04-28T21:12:49.399Z,48.12
2019-04-28T21:15:20.256Z,47.23
2019-04-28T21:17:51.331Z,47.37
2019-04-28T21:20:22.292Z,47.77
2019-04-28T21:22:53.351Z,46.97
2019-04-28T21:25:24.308Z,45.72
2019-04-28T21:27:55.168Z,45.60
2019-04-28T21:30:26.110Z,45.07
2019-04-28T21:32:57.063Z,45.04
2019-04-28T21:35:28.025Z,45.13
2019-04-28T21:37:59.003Z,44.46
2019-04-28T21:40:30.145Z,46.17
2019-04-28T21:43:05.212Z,43.72
2019-04-28T21:45:54.067Z,43.20
2019-04-28T21:48:38.834Z,43.53
2019-04-28T21:51:11.904Z,43.47
2019-04-28T21:53:43.103Z,41.79
2019-04-28T21:56:14.161Z,43.32
2019-04-28T21:58:45.002Z,43.16
2019-04-28T22:01:19.433Z,43.63
2019-04-28T22:03:50.515Z,42.52
2019-04-28T22:06:21.779Z,42.70
2019-04-28T22:08:52.741Z,42.51
2019-04-28T22:11:23.798Z,42.39
2019-04-28T22:13:54.637Z,42.25
2019-04-28T22:16:25.610Z,42.18
2019-04-28T22:18:56.775Z,42.03
2019-04-28T22:21:27.734Z,43.27
2019-04-28T22:24:00.316Z,43.93
2019-04-28T22:26:47.942Z,45.41
2019-04-28T22:29:18.985Z,45.71
2019-04-28T22:31:49.976Z,44.11
2019-04-28T22:34:20.817Z,42.82
2019-04-28T22:36:51.893Z,42.77
2019-04-28T22:39:22.850Z,42.49
2019-04-28T22:41:53.695Z,43.13
2019-04-28T22:44:24.651Z,43.13
2019-04-28T22:46:55.623Z,42.61
2019-04-28T22:49:27.076Z,43.72
2019-04-28T22:51:57.832Z,43.55
2019-04-28T22:54:30.527Z,43.03
2019-04-28T22:57:03.037Z,42.85
2019-04-28T22:59:35.529Z,42.75
2019-04-28T23:02:10.767Z,43.87
2019-04-28T23:04:43.260Z,43.22
2019-04-28T23:07:14.644Z,44.43
2019-04-28T23:09:45.604Z,44.46
2019-04-28T23:12:16.663Z,43.32
2019-04-28T23:14:47.622Z,43.61
2019-04-28T23:17:20.217Z,42.97
2019-04-28T23:19:50.969Z,42.62
2019-04-28T23:22:23.443Z,41.52
2019-04-28T23:24:54.523Z,41.63
2019-04-28T23:27:25.362Z,42.56
2019-04-28T23:29:56.234Z,43.51
2019-04-28T23:32:27.372Z,44.42
2019-04-28T23:34:58.441Z,45.46
2019-04-28T23:37:29.400Z,46.25
2019-04-28T23:40:00.475Z,46.76
2019-04-28T23:42:41.972Z,47.00
2019-04-28T23:45:13.114Z,47.00
2019-04-28T23:47:43.768Z,47.12
2019-04-28T23:50:16.370Z,47.61
2019-04-28T23:52:51.941Z,48.79
2019-04-28T23:55:23.002Z,48.03
2019-04-28T23:57:53.859Z,47.30
